This is the latest recevied weather packets stored in our database for station/object W7BL. If no packets are shown the sender has not sent any weather packets the latest 10 day(s).
| Time | Temp. | Humidity | Pressure | Rain* | Wind** | Luminosity | Snow |
|---|---|---|---|---|---|---|---|
| 1777525750 | 10° C | 59% | - | 0 mm | - | - | - |
| 1777525448 | 10° C | 59% | - | 0 mm | - | - | - |
| 1777525143 | 10° C | 60% | - | 0 mm | - | - | - |
| 1777524840 | 10.56° C | 59% | - | 0 mm | - | - | - |
| 1777524538 | 11.11° C | 56% | - | 0 mm | - | - | - |
| 1777524235 | 11.67° C | 55% | - | 0 mm | - | - | - |
| 1777523930 | 10.56° C | 61% | - | 0 mm | - | - | - |
| 1777523628 | 10.56° C | 60% | - | 0 mm | - | - | - |
| 1777523324 | 10.56° C | 60% | - | 0 mm | - | - | - |
| 1777523019 | 11.11° C | 59% | - | 0 mm | - | - | - |
| 1777522718 | 11.11° C | 60% | - | 0 mm | - | - | - |
| 1777522413 | 11.11° C | 60% | - | 0 mm | - | - | - |
| 1777522111 | 11.67° C | 57% | - | 0 mm | - | - | - |
| 1777521807 | 11.67° C | 58% | - | 0 mm | - | - | - |
| 1777521503 | 11.67° C | 55% | - | 0 mm | - | - | - |
| 1777521201 | 12.22° C | 55% | - | 0 mm | - | - | - |
| 1777520899 | 11.67° C | 56% | - | 0 mm | - | - | - |
| 1777520595 | 11.67° C | 55% | - | 0 mm | - | - | - |
| 1777520292 | 12.22° C | 55% | - | 0 mm | - | - | - |
| 1777519990 | 12.22° C | 54% | - | 0 mm | - | - | - |
| 1777519686 | 12.22° C | 56% | - | 0 mm | - | - | - |
| 1777519383 | 12.22° C | 56% | - | 0 mm | - | - | - |
| 1777519080 | 12.22° C | 57% | - | 0 mm | - | - | - |
| 1777518776 | 12.78° C | 56% | - | 0 mm | - | - | - |
| 1777518472 | 12.78° C | 57% | - | 0 mm | - | - | - |
* Rain latest hour (hover to see other rain measurements)
** Current wind speed in m/s (hover to see current wind gust speed)